sensor_id;sensor_type;location;lat;lon;timestamp;P1;durP1;ratioP1;P2;durP2;ratioP2
32321;SDS011;61553;48.994;8.940;2023-12-04T00:01:48;37.30;;;17.95;;
32321;SDS011;61553;48.994;8.940;2023-12-04T00:04:14;37.83;;;17.35;;
32321;SDS011;61553;48.994;8.940;2023-12-04T00:06:41;42.75;;;18.17;;
32321;SDS011;61553;48.994;8.940;2023-12-04T00:09:06;34.75;;;17.48;;
32321;SDS011;61553;48.994;8.940;2023-12-04T00:11:32;43.22;;;18.25;;
32321;SDS011;61553;48.994;8.940;2023-12-04T00:13:58;37.33;;;18.20;;
32321;SDS011;61553;48.994;8.940;2023-12-04T00:16:24;36.45;;;17.45;;
32321;SDS011;61553;48.994;8.940;2023-12-04T00:18:50;40.50;;;17.55;;
32321;SDS011;61553;48.994;8.940;2023-12-04T00:21:16;37.70;;;17.48;;
32321;SDS011;61553;48.994;8.940;2023-12-04T00:23:42;33.92;;;17.45;;
32321;SDS011;61553;48.994;8.940;2023-12-04T00:26:07;39.20;;;17.38;;
32321;SDS011;61553;48.994;8.940;2023-12-04T00:28:35;35.72;;;16.15;;
32321;SDS011;61553;48.994;8.940;2023-12-04T00:31:02;36.35;;;17.67;;
32321;SDS011;61553;48.994;8.940;2023-12-04T00:33:27;45.10;;;20.98;;
32321;SDS011;61553;48.994;8.940;2023-12-04T00:35:53;35.55;;;17.88;;
32321;SDS011;61553;48.994;8.940;2023-12-04T00:38:19;38.58;;;17.75;;
32321;SDS011;61553;48.994;8.940;2023-12-04T00:40:44;39.00;;;17.92;;
32321;SDS011;61553;48.994;8.940;2023-12-04T00:43:10;38.47;;;17.52;;
32321;SDS011;61553;48.994;8.940;2023-12-04T00:45:36;49.13;;;20.15;;
32321;SDS011;61553;48.994;8.940;2023-12-04T00:48:02;41.00;;;17.70;;
32321;SDS011;61553;48.994;8.940;2023-12-04T00:50:28;39.63;;;17.05;;
32321;SDS011;61553;48.994;8.940;2023-12-04T00:52:53;34.63;;;16.48;;
32321;SDS011;61553;48.994;8.940;2023-12-04T00:55:19;34.75;;;16.27;;
32321;SDS011;61553;48.994;8.940;2023-12-04T00:57:45;33.50;;;16.30;;
32321;SDS011;61553;48.994;8.940;2023-12-04T01:00:11;33.00;;;16.40;;
32321;SDS011;61553;48.994;8.940;2023-12-04T01:02:37;34.38;;;16.35;;
32321;SDS011;61553;48.994;8.940;2023-12-04T01:05:03;39.42;;;16.92;;
32321;SDS011;61553;48.994;8.940;2023-12-04T01:07:29;35.75;;;16.10;;
32321;SDS011;61553;48.994;8.940;2023-12-04T01:09:54;37.20;;;15.88;;
32321;SDS011;61553;48.994;8.940;2023-12-04T01:12:20;42.80;;;16.67;;
32321;SDS011;61553;48.994;8.940;2023-12-04T01:14:46;37.47;;;15.63;;
32321;SDS011;61553;48.994;8.940;2023-12-04T01:17:11;38.80;;;17.00;;
32321;SDS011;61553;48.994;8.940;2023-12-04T01:19:37;34.75;;;17.35;;
32321;SDS011;61553;48.994;8.940;2023-12-04T01:22:03;34.85;;;16.95;;
32321;SDS011;61553;48.994;8.940;2023-12-04T01:24:30;37.13;;;16.80;;
32321;SDS011;61553;48.994;8.940;2023-12-04T01:26:56;38.47;;;16.65;;
32321;SDS011;61553;48.994;8.940;2023-12-04T01:29:21;36.17;;;16.35;;
32321;SDS011;61553;48.994;8.940;2023-12-04T01:31:47;33.80;;;16.48;;
32321;SDS011;61553;48.994;8.940;2023-12-04T01:34:12;37.35;;;16.13;;
32321;SDS011;61553;48.994;8.940;2023-12-04T01:36:41;36.15;;;17.52;;
32321;SDS011;61553;48.994;8.940;2023-12-04T01:39:07;36.97;;;16.13;;
32321;SDS011;61553;48.994;8.940;2023-12-04T01:41:32;31.55;;;15.63;;
32321;SDS011;61553;48.994;8.940;2023-12-04T01:43:58;36.20;;;16.60;;
32321;SDS011;61553;48.994;8.940;2023-12-04T01:46:23;35.58;;;17.55;;
32321;SDS011;61553;48.994;8.940;2023-12-04T01:48:49;34.35;;;16.08;;
32321;SDS011;61553;48.994;8.940;2023-12-04T01:51:15;34.63;;;16.45;;
32321;SDS011;61553;48.994;8.940;2023-12-04T01:53:42;33.33;;;15.20;;
32321;SDS011;61553;48.994;8.940;2023-12-04T01:56:09;35.47;;;16.55;;
32321;SDS011;61553;48.994;8.940;2023-12-04T01:58:35;36.60;;;16.45;;
32321;SDS011;61553;48.994;8.940;2023-12-04T02:01:01;37.67;;;16.40;;
32321;SDS011;61553;48.994;8.940;2023-12-04T02:03:28;34.88;;;16.42;;
32321;SDS011;61553;48.994;8.940;2023-12-04T02:05:53;39.70;;;17.45;;
32321;SDS011;61553;48.994;8.940;2023-12-04T02:08:21;39.40;;;17.52;;
32321;SDS011;61553;48.994;8.940;2023-12-04T02:10:47;34.88;;;15.20;;
32321;SDS011;61553;48.994;8.940;2023-12-04T02:13:13;33.13;;;15.00;;
32321;SDS011;61553;48.994;8.940;2023-12-04T02:15:39;31.33;;;15.00;;
32321;SDS011;61553;48.994;8.940;2023-12-04T02:18:05;35.60;;;16.45;;
32321;SDS011;61553;48.994;8.940;2023-12-04T02:20:34;33.88;;;15.30;;
32321;SDS011;61553;48.994;8.940;2023-12-04T02:23:01;34.05;;;16.30;;
32321;SDS011;61553;48.994;8.940;2023-12-04T02:25:27;32.97;;;15.60;;
32321;SDS011;61553;48.994;8.940;2023-12-04T02:27:53;36.30;;;16.55;;
32321;SDS011;61553;48.994;8.940;2023-12-04T02:30:21;33.25;;;15.38;;
32321;SDS011;61553;48.994;8.940;2023-12-04T02:32:49;33.15;;;15.35;;
32321;SDS011;61553;48.994;8.940;2023-12-04T02:35:16;32.85;;;15.13;;
32321;SDS011;61553;48.994;8.940;2023-12-04T02:37:46;35.10;;;15.65;;
32321;SDS011;61553;48.994;8.940;2023-12-04T02:40:12;33.30;;;14.13;;
32321;SDS011;61553;48.994;8.940;2023-12-04T02:42:38;36.75;;;15.90;;
32321;SDS011;61553;48.994;8.940;2023-12-04T02:45:04;30.13;;;14.98;;
32321;SDS011;61553;48.994;8.940;2023-12-04T02:47:30;36.92;;;15.95;;
32321;SDS011;61553;48.994;8.940;2023-12-04T02:49:56;32.08;;;15.43;;
32321;SDS011;61553;48.994;8.940;2023-12-04T02:52:21;35.28;;;15.40;;
32321;SDS011;61553;48.994;8.940;2023-12-04T02:54:47;34.47;;;15.73;;
32321;SDS011;61553;48.994;8.940;2023-12-04T02:57:13;32.20;;;15.07;;
32321;SDS011;61553;48.994;8.940;2023-12-04T02:59:38;34.25;;;16.13;;
32321;SDS011;61553;48.994;8.940;2023-12-04T03:02:04;38.28;;;16.83;;
32321;SDS011;61553;48.994;8.940;2023-12-04T03:04:30;34.97;;;15.75;;
32321;SDS011;61553;48.994;8.940;2023-12-04T03:06:56;34.85;;;15.50;;
32321;SDS011;61553;48.994;8.940;2023-12-04T03:09:21;32.25;;;14.43;;
32321;SDS011;61553;48.994;8.940;2023-12-04T03:11:47;29.67;;;14.95;;
32321;SDS011;61553;48.994;8.940;2023-12-04T03:14:13;37.50;;;16.50;;
32321;SDS011;61553;48.994;8.940;2023-12-04T03:16:39;41.92;;;16.60;;
32321;SDS011;61553;48.994;8.940;2023-12-04T03:19:04;32.85;;;15.32;;
32321;SDS011;61553;48.994;8.940;2023-12-04T03:21:30;38.53;;;15.73;;
32321;SDS011;61553;48.994;8.940;2023-12-04T03:23:56;32.55;;;15.32;;
32321;SDS011;61553;48.994;8.940;2023-12-04T03:26:21;31.58;;;14.70;;
32321;SDS011;61553;48.994;8.940;2023-12-04T03:28:47;33.40;;;15.93;;
32321;SDS011;61553;48.994;8.940;2023-12-04T03:31:13;37.75;;;16.55;;
32321;SDS011;61553;48.994;8.940;2023-12-04T03:33:38;32.83;;;15.13;;
32321;SDS011;61553;48.994;8.940;2023-12-04T03:36:04;31.17;;;14.38;;
32321;SDS011;61553;48.994;8.940;2023-12-04T03:38:30;31.73;;;14.85;;
32321;SDS011;61553;48.994;8.940;2023-12-04T03:40:56;37.45;;;15.57;;
32321;SDS011;61553;48.994;8.940;2023-12-04T03:43:21;33.17;;;15.57;;
32321;SDS011;61553;48.994;8.940;2023-12-04T03:45:47;31.70;;;15.85;;
32321;SDS011;61553;48.994;8.940;2023-12-04T03:48:13;31.58;;;14.85;;
32321;SDS011;61553;48.994;8.940;2023-12-04T03:50:38;28.73;;;15.13;;
32321;SDS011;61553;48.994;8.940;2023-12-04T03:53:04;33.22;;;14.48;;
32321;SDS011;61553;48.994;8.940;2023-12-04T03:55:29;31.55;;;14.50;;
32321;SDS011;61553;48.994;8.940;2023-12-04T03:57:56;29.77;;;14.27;;
32321;SDS011;61553;48.994;8.940;2023-12-04T04:00:22;34.30;;;15.43;;
32321;SDS011;61553;48.994;8.940;2023-12-04T04:02:48;31.05;;;13.98;;
32321;SDS011;61553;48.994;8.940;2023-12-04T04:05:14;33.55;;;14.85;;
32321;SDS011;61553;48.994;8.940;2023-12-04T04:07:40;32.40;;;14.65;;
32321;SDS011;61553;48.994;8.940;2023-12-04T04:10:06;34.28;;;15.10;;
32321;SDS011;61553;48.994;8.940;2023-12-04T04:12:33;29.77;;;14.43;;
32321;SDS011;61553;48.994;8.940;2023-12-04T04:14:58;31.63;;;15.80;;
32321;SDS011;61553;48.994;8.940;2023-12-04T04:17:24;32.95;;;14.85;;
32321;SDS011;61553;48.994;8.940;2023-12-04T04:19:53;30.05;;;14.48;;
32321;SDS011;61553;48.994;8.940;2023-12-04T04:22:22;31.73;;;14.23;;
32321;SDS011;61553;48.994;8.940;2023-12-04T04:24:48;26.60;;;14.88;;
32321;SDS011;61553;48.994;8.940;2023-12-04T04:27:14;30.20;;;14.98;;
32321;SDS011;61553;48.994;8.940;2023-12-04T04:29:39;30.52;;;14.55;;
32321;SDS011;61553;48.994;8.940;2023-12-04T04:32:05;40.78;;;18.27;;
32321;SDS011;61553;48.994;8.940;2023-12-04T04:34:31;33.65;;;16.88;;
32321;SDS011;61553;48.994;8.940;2023-12-04T04:36:57;31.77;;;15.23;;
32321;SDS011;61553;48.994;8.940;2023-12-04T04:39:22;31.98;;;14.10;;
32321;SDS011;61553;48.994;8.940;2023-12-04T04:41:48;30.60;;;14.52;;
32321;SDS011;61553;48.994;8.940;2023-12-04T04:44:14;34.65;;;15.57;;
32321;SDS011;61553;48.994;8.940;2023-12-04T04:46:39;37.03;;;15.95;;
32321;SDS011;61553;48.994;8.940;2023-12-04T04:49:05;40.95;;;16.88;;
32321;SDS011;61553;48.994;8.940;2023-12-04T04:51:32;26.88;;;14.20;;
32321;SDS011;61553;48.994;8.940;2023-12-04T04:53:59;33.17;;;15.60;;
32321;SDS011;61553;48.994;8.940;2023-12-04T04:56:27;33.08;;;14.30;;
32321;SDS011;61553;48.994;8.940;2023-12-04T04:58:53;28.63;;;13.63;;
32321;SDS011;61553;48.994;8.940;2023-12-04T05:01:19;30.63;;;13.30;;
32321;SDS011;61553;48.994;8.940;2023-12-04T05:03:45;28.58;;;12.93;;
32321;SDS011;61553;48.994;8.940;2023-12-04T05:06:10;29.98;;;14.68;;
32321;SDS011;61553;48.994;8.940;2023-12-04T05:08:36;26.58;;;13.88;;
32321;SDS011;61553;48.994;8.940;2023-12-04T05:11:02;31.08;;;15.07;;
32321;SDS011;61553;48.994;8.940;2023-12-04T05:13:28;28.67;;;13.68;;
32321;SDS011;61553;48.994;8.940;2023-12-04T05:15:53;33.08;;;15.50;;
32321;SDS011;61553;48.994;8.940;2023-12-04T05:18:19;25.27;;;12.43;;
32321;SDS011;61553;48.994;8.940;2023-12-04T05:20:44;30.35;;;13.20;;
32321;SDS011;61553;48.994;8.940;2023-12-04T05:23:10;28.00;;;13.40;;
32321;SDS011;61553;48.994;8.940;2023-12-04T05:25:35;29.48;;;12.68;;
32321;SDS011;61553;48.994;8.940;2023-12-04T05:28:01;28.60;;;12.43;;
32321;SDS011;61553;48.994;8.940;2023-12-04T05:30:27;27.08;;;13.27;;
32321;SDS011;61553;48.994;8.940;2023-12-04T05:32:52;25.92;;;12.60;;
32321;SDS011;61553;48.994;8.940;2023-12-04T05:35:19;28.98;;;13.55;;
32321;SDS011;61553;48.994;8.940;2023-12-04T05:37:45;31.27;;;14.75;;
32321;SDS011;61553;48.994;8.940;2023-12-04T05:40:11;40.72;;;18.88;;
32321;SDS011;61553;48.994;8.940;2023-12-04T05:42:37;37.42;;;16.50;;
32321;SDS011;61553;48.994;8.940;2023-12-04T05:45:02;32.22;;;14.45;;
32321;SDS011;61553;48.994;8.940;2023-12-04T05:47:28;27.10;;;12.93;;
32321;SDS011;61553;48.994;8.940;2023-12-04T05:49:55;33.63;;;14.88;;
32321;SDS011;61553;48.994;8.940;2023-12-04T05:52:21;26.95;;;11.15;;
32321;SDS011;61553;48.994;8.940;2023-12-04T05:54:46;26.35;;;12.10;;
32321;SDS011;61553;48.994;8.940;2023-12-04T05:57:12;28.55;;;14.00;;
32321;SDS011;61553;48.994;8.940;2023-12-04T05:59:38;24.23;;;11.98;;
32321;SDS011;61553;48.994;8.940;2023-12-04T06:02:03;37.65;;;14.57;;
32321;SDS011;61553;48.994;8.940;2023-12-04T06:04:29;40.28;;;17.73;;
32321;SDS011;61553;48.994;8.940;2023-12-04T06:06:54;100.70;;;35.83;;
32321;SDS011;61553;48.994;8.940;2023-12-04T06:09:20;78.22;;;27.38;;
32321;SDS011;61553;48.994;8.940;2023-12-04T06:11:46;100.85;;;32.33;;
32321;SDS011;61553;48.994;8.940;2023-12-04T06:14:12;46.20;;;18.98;;
32321;SDS011;61553;48.994;8.940;2023-12-04T06:16:37;125.03;;;40.63;;
32321;SDS011;61553;48.994;8.940;2023-12-04T06:19:03;54.25;;;22.75;;
32321;SDS011;61553;48.994;8.940;2023-12-04T06:21:31;28.85;;;14.70;;
32321;SDS011;61553;48.994;8.940;2023-12-04T06:23:57;26.48;;;12.68;;
32321;SDS011;61553;48.994;8.940;2023-12-04T06:26:23;26.40;;;12.43;;
32321;SDS011;61553;48.994;8.940;2023-12-04T06:28:49;25.05;;;12.45;;
32321;SDS011;61553;48.994;8.940;2023-12-04T06:31:15;28.25;;;12.60;;
32321;SDS011;61553;48.994;8.940;2023-12-04T06:33:41;25.88;;;12.85;;
32321;SDS011;61553;48.994;8.940;2023-12-04T06:36:07;37.00;;;13.45;;
32321;SDS011;61553;48.994;8.940;2023-12-04T06:38:34;29.15;;;13.70;;
32321;SDS011;61553;48.994;8.940;2023-12-04T06:41:03;30.02;;;12.82;;
32321;SDS011;61553;48.994;8.940;2023-12-04T06:43:29;24.95;;;13.45;;
32321;SDS011;61553;48.994;8.940;2023-12-04T06:45:55;24.25;;;12.50;;
32321;SDS011;61553;48.994;8.940;2023-12-04T06:48:23;26.00;;;13.25;;
32321;SDS011;61553;48.994;8.940;2023-12-04T06:50:49;30.73;;;14.60;;
32321;SDS011;61553;48.994;8.940;2023-12-04T06:53:15;27.35;;;12.95;;
32321;SDS011;61553;48.994;8.940;2023-12-04T06:55:41;29.10;;;13.65;;
32321;SDS011;61553;48.994;8.940;2023-12-04T06:58:06;28.75;;;15.15;;
32321;SDS011;61553;48.994;8.940;2023-12-04T07:00:32;28.35;;;14.27;;
32321;SDS011;61553;48.994;8.940;2023-12-04T07:02:57;26.00;;;13.30;;
32321;SDS011;61553;48.994;8.940;2023-12-04T07:05:23;26.40;;;13.27;;
32321;SDS011;61553;48.994;8.940;2023-12-04T07:07:49;29.13;;;13.57;;
32321;SDS011;61553;48.994;8.940;2023-12-04T07:10:14;25.45;;;13.25;;
32321;SDS011;61553;48.994;8.940;2023-12-04T07:12:41;30.38;;;13.43;;
32321;SDS011;61553;48.994;8.940;2023-12-04T07:15:07;30.77;;;14.10;;
32321;SDS011;61553;48.994;8.940;2023-12-04T07:17:34;22.88;;;12.82;;
32321;SDS011;61553;48.994;8.940;2023-12-04T07:20:00;23.92;;;11.30;;
32321;SDS011;61553;48.994;8.940;2023-12-04T07:22:26;22.70;;;11.65;;
32321;SDS011;61553;48.994;8.940;2023-12-04T07:24:52;25.50;;;11.90;;
32321;SDS011;61553;48.994;8.940;2023-12-04T07:27:17;25.33;;;12.23;;
32321;SDS011;61553;48.994;8.940;2023-12-04T07:29:43;26.55;;;11.70;;
32321;SDS011;61553;48.994;8.940;2023-12-04T07:32:08;23.63;;;12.38;;
32321;SDS011;61553;48.994;8.940;2023-12-04T07:34:34;25.42;;;12.30;;
32321;SDS011;61553;48.994;8.940;2023-12-04T07:37:00;23.05;;;12.95;;
32321;SDS011;61553;48.994;8.940;2023-12-04T07:39:25;30.27;;;13.23;;
32321;SDS011;61553;48.994;8.940;2023-12-04T07:41:51;26.75;;;13.00;;
32321;SDS011;61553;48.994;8.940;2023-12-04T07:44:17;26.83;;;12.45;;
32321;SDS011;61553;48.994;8.940;2023-12-04T07:46:43;27.27;;;12.88;;
32321;SDS011;61553;48.994;8.940;2023-12-04T07:49:09;26.73;;;12.35;;
32321;SDS011;61553;48.994;8.940;2023-12-04T07:51:34;22.70;;;11.02;;
32321;SDS011;61553;48.994;8.940;2023-12-04T07:54:00;21.75;;;11.00;;
32321;SDS011;61553;48.994;8.940;2023-12-04T07:56:26;26.88;;;11.52;;
32321;SDS011;61553;48.994;8.940;2023-12-04T07:58:51;21.52;;;10.82;;
32321;SDS011;61553;48.994;8.940;2023-12-04T08:01:17;24.65;;;11.30;;
32321;SDS011;61553;48.994;8.940;2023-12-04T08:03:43;21.90;;;10.57;;
32321;SDS011;61553;48.994;8.940;2023-12-04T08:06:08;22.98;;;10.60;;
32321;SDS011;61553;48.994;8.940;2023-12-04T08:08:34;22.58;;;10.60;;
32321;SDS011;61553;48.994;8.940;2023-12-04T08:11:00;24.42;;;11.88;;
32321;SDS011;61553;48.994;8.940;2023-12-04T08:13:25;27.45;;;11.25;;
32321;SDS011;61553;48.994;8.940;2023-12-04T08:15:51;21.02;;;11.07;;
32321;SDS011;61553;48.994;8.940;2023-12-04T08:18:17;21.90;;;10.73;;
32321;SDS011;61553;48.994;8.940;2023-12-04T08:20:42;20.05;;;11.30;;
32321;SDS011;61553;48.994;8.940;2023-12-04T08:23:08;23.77;;;11.45;;
32321;SDS011;61553;48.994;8.940;2023-12-04T08:25:34;23.15;;;11.73;;
32321;SDS011;61553;48.994;8.940;2023-12-04T08:28:02;25.13;;;12.75;;
32321;SDS011;61553;48.994;8.940;2023-12-04T08:30:28;23.40;;;11.57;;
32321;SDS011;61553;48.994;8.940;2023-12-04T08:32:54;24.13;;;14.10;;
32321;SDS011;61553;48.994;8.940;2023-12-04T08:35:19;23.35;;;11.02;;
32321;SDS011;61553;48.994;8.940;2023-12-04T08:37:45;18.55;;;10.23;;
32321;SDS011;61553;48.994;8.940;2023-12-04T08:40:11;20.13;;;11.23;;
32321;SDS011;61553;48.994;8.940;2023-12-04T08:42:37;22.73;;;10.93;;
32321;SDS011;61553;48.994;8.940;2023-12-04T08:45:03;21.13;;;11.60;;
32321;SDS011;61553;48.994;8.940;2023-12-04T08:47:31;24.60;;;13.00;;
32321;SDS011;61553;48.994;8.940;2023-12-04T08:49:57;23.65;;;13.32;;
32321;SDS011;61553;48.994;8.940;2023-12-04T08:52:24;23.10;;;11.75;;
32321;SDS011;61553;48.994;8.940;2023-12-04T08:54:50;32.70;;;15.60;;
32321;SDS011;61553;48.994;8.940;2023-12-04T08:57:16;24.15;;;11.88;;
32321;SDS011;61553;48.994;8.940;2023-12-04T08:59:41;22.83;;;10.18;;
32321;SDS011;61553;48.994;8.940;2023-12-04T09:02:07;19.13;;;10.70;;
32321;SDS011;61553;48.994;8.940;2023-12-04T09:04:32;19.95;;;10.23;;
32321;SDS011;61553;48.994;8.940;2023-12-04T09:06:58;25.85;;;12.30;;
32321;SDS011;61553;48.994;8.940;2023-12-04T09:09:24;18.50;;;10.25;;
32321;SDS011;61553;48.994;8.940;2023-12-04T09:11:50;20.83;;;10.85;;
32321;SDS011;61553;48.994;8.940;2023-12-04T09:14:15;21.00;;;11.10;;
32321;SDS011;61553;48.994;8.940;2023-12-04T09:16:41;19.85;;;10.23;;
32321;SDS011;61553;48.994;8.940;2023-12-04T09:19:07;18.80;;;11.07;;
32321;SDS011;61553;48.994;8.940;2023-12-04T09:21:33;20.88;;;10.68;;
32321;SDS011;61553;48.994;8.940;2023-12-04T09:24:00;21.67;;;10.23;;
32321;SDS011;61553;48.994;8.940;2023-12-04T09:26:26;17.98;;;9.85;;
32321;SDS011;61553;48.994;8.940;2023-12-04T09:28:52;21.65;;;9.90;;
32321;SDS011;61553;48.994;8.940;2023-12-04T09:31:18;15.80;;;9.48;;
32321;SDS011;61553;48.994;8.940;2023-12-04T09:33:44;17.30;;;9.52;;
32321;SDS011;61553;48.994;8.940;2023-12-04T09:36:10;18.38;;;9.85;;
32321;SDS011;61553;48.994;8.940;2023-12-04T09:38:35;17.08;;;9.10;;
32321;SDS011;61553;48.994;8.940;2023-12-04T09:41:01;20.50;;;9.05;;
32321;SDS011;61553;48.994;8.940;2023-12-04T09:43:29;19.30;;;8.98;;
32321;SDS011;61553;48.994;8.940;2023-12-04T09:45:56;20.65;;;9.88;;
32321;SDS011;61553;48.994;8.940;2023-12-04T09:48:24;19.45;;;10.05;;
32321;SDS011;61553;48.994;8.940;2023-12-04T09:50:51;20.15;;;10.15;;
32321;SDS011;61553;48.994;8.940;2023-12-04T09:53:18;19.70;;;9.63;;
32321;SDS011;61553;48.994;8.940;2023-12-04T09:55:47;27.15;;;12.25;;
32321;SDS011;61553;48.994;8.940;2023-12-04T09:58:14;17.23;;;9.90;;
32321;SDS011;61553;48.994;8.940;2023-12-04T10:00:41;18.27;;;9.80;;
32321;SDS011;61553;48.994;8.940;2023-12-04T10:03:08;19.65;;;9.45;;
32321;SDS011;61553;48.994;8.940;2023-12-04T10:05:33;19.98;;;10.55;;
32321;SDS011;61553;48.994;8.940;2023-12-04T10:07:59;18.45;;;9.82;;
32321;SDS011;61553;48.994;8.940;2023-12-04T10:10:25;19.70;;;10.32;;
32321;SDS011;61553;48.994;8.940;2023-12-04T10:12:51;20.75;;;10.60;;
32321;SDS011;61553;48.994;8.940;2023-12-04T10:15:17;19.75;;;9.52;;
32321;SDS011;61553;48.994;8.940;2023-12-04T10:17:42;17.85;;;9.80;;
32321;SDS011;61553;48.994;8.940;2023-12-04T10:20:11;20.45;;;9.57;;
32321;SDS011;61553;48.994;8.940;2023-12-04T10:22:51;18.05;;;10.30;;
32321;SDS011;61553;48.994;8.940;2023-12-04T10:25:19;23.52;;;11.15;;
32321;SDS011;61553;48.994;8.940;2023-12-04T10:27:45;21.40;;;11.00;;
32321;SDS011;61553;48.994;8.940;2023-12-04T10:30:32;19.63;;;10.98;;
32321;SDS011;61553;48.994;8.940;2023-12-04T10:32:58;20.30;;;10.65;;
32321;SDS011;61553;48.994;8.940;2023-12-04T10:35:30;19.33;;;10.45;;
32321;SDS011;61553;48.994;8.940;2023-12-04T10:37:57;27.85;;;12.40;;
32321;SDS011;61553;48.994;8.940;2023-12-04T10:40:25;33.17;;;13.98;;
32321;SDS011;61553;48.994;8.940;2023-12-04T10:42:52;29.58;;;14.55;;
32321;SDS011;61553;48.994;8.940;2023-12-04T10:45:35;25.65;;;13.77;;
32321;SDS011;61553;48.994;8.940;2023-12-04T10:48:01;21.80;;;9.88;;
32321;SDS011;61553;48.994;8.940;2023-12-04T10:50:31;21.15;;;10.35;;
32321;SDS011;61553;48.994;8.940;2023-12-04T10:52:58;19.08;;;10.05;;
32321;SDS011;61553;48.994;8.940;2023-12-04T10:55:26;20.67;;;10.73;;
32321;SDS011;61553;48.994;8.940;2023-12-04T10:57:52;18.50;;;10.55;;
32321;SDS011;61553;48.994;8.940;2023-12-04T11:00:19;30.08;;;12.45;;
32321;SDS011;61553;48.994;8.940;2023-12-04T11:02:46;56.90;;;23.80;;
32321;SDS011;61553;48.994;8.940;2023-12-04T11:05:15;18.35;;;10.38;;
32321;SDS011;61553;48.994;8.940;2023-12-04T11:07:56;20.05;;;10.80;;
32321;SDS011;61553;48.994;8.940;2023-12-04T11:10:24;17.88;;;9.95;;
32321;SDS011;61553;48.994;8.940;2023-12-04T11:13:00;19.98;;;10.65;;
32321;SDS011;61553;48.994;8.940;2023-12-04T11:15:31;20.83;;;10.57;;
32321;SDS011;61553;48.994;8.940;2023-12-04T11:18:00;22.45;;;10.65;;
32321;SDS011;61553;48.994;8.940;2023-12-04T11:20:29;22.42;;;10.48;;
32321;SDS011;61553;48.994;8.940;2023-12-04T11:22:58;20.42;;;11.10;;
32321;SDS011;61553;48.994;8.940;2023-12-04T11:25:25;21.88;;;11.68;;
32321;SDS011;61553;48.994;8.940;2023-12-04T11:27:52;26.58;;;12.77;;
32321;SDS011;61553;48.994;8.940;2023-12-04T11:30:18;25.20;;;12.80;;
32321;SDS011;61553;48.994;8.940;2023-12-04T11:32:45;19.75;;;11.35;;
32321;SDS011;61553;48.994;8.940;2023-12-04T11:35:14;20.70;;;10.48;;
32321;SDS011;61553;48.994;8.940;2023-12-04T11:37:42;21.45;;;11.23;;
32321;SDS011;61553;48.994;8.940;2023-12-04T11:40:12;22.25;;;11.95;;
32321;SDS011;61553;48.994;8.940;2023-12-04T11:42:40;19.42;;;10.75;;
32321;SDS011;61553;48.994;8.940;2023-12-04T11:45:06;26.17;;;11.95;;
32321;SDS011;61553;48.994;8.940;2023-12-04T11:47:48;23.05;;;11.25;;
32321;SDS011;61553;48.994;8.940;2023-12-04T11:50:19;22.45;;;11.48;;
32321;SDS011;61553;48.994;8.940;2023-12-04T11:52:46;25.77;;;11.30;;
32321;SDS011;61553;48.994;8.940;2023-12-04T11:55:12;19.55;;;11.27;;
32321;SDS011;61553;48.994;8.940;2023-12-04T11:57:41;20.30;;;10.10;;
32321;SDS011;61553;48.994;8.940;2023-12-04T12:05:22;20.20;;;10.63;;
32321;SDS011;61553;48.994;8.940;2023-12-04T12:07:50;21.30;;;12.43;;
32321;SDS011;61553;48.994;8.940;2023-12-04T12:10:16;22.23;;;11.20;;
32321;SDS011;61553;48.994;8.940;2023-12-04T12:12:42;22.08;;;11.70;;
32321;SDS011;61553;48.994;8.940;2023-12-04T12:15:08;19.83;;;11.23;;
32321;SDS011;61553;48.994;8.940;2023-12-04T12:17:35;20.55;;;11.45;;
32321;SDS011;61553;48.994;8.940;2023-12-04T12:20:02;19.52;;;11.38;;
32321;SDS011;61553;48.994;8.940;2023-12-04T12:22:31;23.50;;;12.65;;
32321;SDS011;61553;48.994;8.940;2023-12-04T12:24:58;18.38;;;10.52;;
32321;SDS011;61553;48.994;8.940;2023-12-04T12:27:24;18.02;;;10.60;;
32321;SDS011;61553;48.994;8.940;2023-12-04T12:29:50;21.55;;;11.90;;
32321;SDS011;61553;48.994;8.940;2023-12-04T12:32:16;22.15;;;12.88;;
32321;SDS011;61553;48.994;8.940;2023-12-04T12:34:42;32.47;;;18.60;;
32321;SDS011;61553;48.994;8.940;2023-12-04T12:37:08;24.00;;;12.70;;
32321;SDS011;61553;48.994;8.940;2023-12-04T12:39:33;19.75;;;10.65;;
32321;SDS011;61553;48.994;8.940;2023-12-04T12:42:00;22.40;;;10.90;;
32321;SDS011;61553;48.994;8.940;2023-12-04T12:44:27;21.23;;;10.48;;
32321;SDS011;61553;48.994;8.940;2023-12-04T12:46:53;24.98;;;12.32;;
32321;SDS011;61553;48.994;8.940;2023-12-04T12:49:19;24.85;;;12.65;;
32321;SDS011;61553;48.994;8.940;2023-12-04T12:51:45;23.38;;;11.82;;
32321;SDS011;61553;48.994;8.940;2023-12-04T12:54:11;22.67;;;12.25;;
32321;SDS011;61553;48.994;8.940;2023-12-04T12:56:40;21.20;;;11.82;;
32321;SDS011;61553;48.994;8.940;2023-12-04T12:59:12;25.48;;;12.15;;
32321;SDS011;61553;48.994;8.940;2023-12-04T13:01:38;20.90;;;10.65;;
32321;SDS011;61553;48.994;8.940;2023-12-04T13:04:04;61.13;;;44.30;;
32321;SDS011;61553;48.994;8.940;2023-12-04T13:06:29;29.38;;;17.55;;
32321;SDS011;61553;48.994;8.940;2023-12-04T13:08:55;27.70;;;16.10;;
32321;SDS011;61553;48.994;8.940;2023-12-04T13:11:21;25.33;;;12.43;;
32321;SDS011;61553;48.994;8.940;2023-12-04T13:13:46;21.98;;;11.02;;
32321;SDS011;61553;48.994;8.940;2023-12-04T13:16:22;66.22;;;32.42;;
32321;SDS011;61553;48.994;8.940;2023-12-04T13:18:48;42.63;;;20.63;;
32321;SDS011;61553;48.994;8.940;2023-12-04T13:21:13;67.72;;;30.33;;
32321;SDS011;61553;48.994;8.940;2023-12-04T13:23:39;96.90;;;39.47;;
32321;SDS011;61553;48.994;8.940;2023-12-04T13:26:05;71.57;;;32.30;;
32321;SDS011;61553;48.994;8.940;2023-12-04T13:28:31;20.55;;;11.77;;
32321;SDS011;61553;48.994;8.940;2023-12-04T13:30:56;20.77;;;12.18;;
32321;SDS011;61553;48.994;8.940;2023-12-04T13:33:22;22.75;;;11.25;;
32321;SDS011;61553;48.994;8.940;2023-12-04T13:35:47;19.33;;;10.70;;
32321;SDS011;61553;48.994;8.940;2023-12-04T13:38:13;22.15;;;11.93;;
32321;SDS011;61553;48.994;8.940;2023-12-04T13:40:40;18.88;;;11.00;;
32321;SDS011;61553;48.994;8.940;2023-12-04T13:43:05;19.27;;;11.57;;
32321;SDS011;61553;48.994;8.940;2023-12-04T13:45:50;22.90;;;12.18;;
32321;SDS011;61553;48.994;8.940;2023-12-04T13:48:16;24.35;;;12.38;;
32321;SDS011;61553;48.994;8.940;2023-12-04T13:50:43;26.08;;;15.23;;
32321;SDS011;61553;48.994;8.940;2023-12-04T13:53:08;22.52;;;12.57;;
32321;SDS011;61553;48.994;8.940;2023-12-04T13:55:34;22.67;;;12.38;;
32321;SDS011;61553;48.994;8.940;2023-12-04T13:58:32;20.30;;;11.60;;
32321;SDS011;61553;48.994;8.940;2023-12-04T14:01:01;22.38;;;12.65;;
32321;SDS011;61553;48.994;8.940;2023-12-04T14:03:37;19.63;;;10.70;;
32321;SDS011;61553;48.994;8.940;2023-12-04T14:06:03;22.80;;;11.52;;
32321;SDS011;61553;48.994;8.940;2023-12-04T14:08:29;24.30;;;11.48;;
32321;SDS011;61553;48.994;8.940;2023-12-04T14:10:55;22.80;;;11.63;;
32321;SDS011;61553;48.994;8.940;2023-12-04T14:13:20;20.40;;;11.32;;
32321;SDS011;61553;48.994;8.940;2023-12-04T14:15:46;24.23;;;12.52;;
32321;SDS011;61553;48.994;8.940;2023-12-04T14:18:11;22.13;;;12.05;;
32321;SDS011;61553;48.994;8.940;2023-12-04T14:20:38;20.85;;;11.95;;
32321;SDS011;61553;48.994;8.940;2023-12-04T14:23:03;23.80;;;12.82;;